Time;durP1;ratioP1;P1;durP2;ratioP2;P2;SDS_P1;SDS_P2;PMS_P1;PMS_P2;Temp;Humidity;BMP_temperature;BMP_pressure;BME280_temperature;BME280_humidity;BME280_pressure;Samples;Min_cycle;Max_cycle;Signal;HPM_P1;HPM_P2
2022/11/17 00:00:23;;;;;;;5.03;3.30;;;21.90;86.40;;;;;;4986951;28;20496;-74
2022/11/17 00:02:57;;;;;;;4.63;3.07;;;21.90;86.40;;;;;;4986721;28;20468;-74
2022/11/17 00:05:24;;;;;;;5.37;3.63;;;21.90;86.50;;;;;;4983097;28;20480;-74
2022/11/17 00:07:51;;;;;;;4.90;2.73;;;21.90;86.50;;;;;;4984660;28;20454;-74
2022/11/17 00:10:18;;;;;;;7.80;3.27;;;21.80;86.40;;;;;;4982667;28;20467;-75
2022/11/17 00:15:30;;;;;;;4.97;3.47;;;21.70;86.50;;;;;;4980524;28;20275;-74
2022/11/17 00:23:45;;;;;;;7.20;3.65;;;21.60;87.20;;;;;;4980601;28;20811;-74
2022/11/17 00:26:13;;;;;;;3.63;3.07;;;21.60;87.50;;;;;;4979196;28;20632;-74
2022/11/17 00:28:45;;;;;;;5.53;3.47;;;21.50;87.20;;;;;;4988608;28;20460;-74
2022/11/17 00:34:07;;;;;;;6.05;3.30;;;21.60;87.10;;;;;;4985694;28;20219;-74
2022/11/17 00:36:37;;;;;;;3.50;2.97;;;21.50;87.20;;;;;;4980884;28;20200;-74
2022/11/17 00:39:04;;;;;;;4.53;3.47;;;21.50;87.50;;;;;;4983418;28;20311;-74
2022/11/17 00:41:31;;;;;;;5.60;2.75;;;21.50;87.60;;;;;;4981959;28;20209;-74
2022/11/17 00:43:58;;;;;;;3.17;2.50;;;21.50;87.70;;;;;;4980732;28;20209;-75
2022/11/17 00:46:24;;;;;;;4.07;2.97;;;21.50;87.30;;;;;;4982762;28;20228;-74
2022/11/17 00:48:51;;;;;;;3.75;3.00;;;21.50;87.30;;;;;;4980329;28;20224;-74
2022/11/17 00:51:20;;;;;;;4.93;2.70;;;21.50;87.50;;;;;;4980905;28;20219;-74
2022/11/17 00:53:46;;;;;;;3.42;2.95;;;21.50;87.10;;;;;;4982487;28;20208;-74
2022/11/17 00:56:13;;;;;;;4.88;3.65;;;21.50;86.80;;;;;;4978778;28;20807;-74
2022/11/17 00:58:40;;;;;;;3.47;2.85;;;21.50;87.10;;;;;;4977418;28;20221;-74
2022/11/17 01:01:07;;;;;;;4.35;3.30;;;21.50;87.00;;;;;;4983440;28;20205;-74
2022/11/17 01:03:34;;;;;;;4.70;3.03;;;21.50;87.20;;;;;;4982700;28;20201;-74
2022/11/17 01:06:05;;;;;;;3.67;2.60;;;21.40;86.90;;;;;;4980972;28;20245;-73
2022/11/17 01:08:34;;;;;;;4.75;2.95;;;21.40;88.00;;;;;;4981060;28;20214;-73
2022/11/17 01:11:09;;;;;;;2.88;2.45;;;21.50;87.30;;;;;;4984782;28;20205;-74
2022/11/17 01:13:36;;;;;;;4.85;3.13;;;21.50;87.60;;;;;;4982058;28;20197;-73
2022/11/17 01:16:05;;;;;;;3.88;2.53;;;21.40;87.40;;;;;;4983504;28;20232;-73
2022/11/17 01:18:32;;;;;;;3.60;3.00;;;21.40;87.50;;;;;;4981177;28;20502;-73
2022/11/17 01:21:04;;;;;;;4.68;2.97;;;21.40;87.60;;;;;;4983158;28;20197;-74
2022/11/17 01:23:31;;;;;;;4.25;2.80;;;21.30;87.60;;;;;;4982529;28;20676;-74
2022/11/17 01:26:03;;;;;;;3.35;2.58;;;21.30;87.80;;;;;;4980709;28;20232;-73
2022/11/17 01:28:30;;;;;;;5.07;2.65;;;21.30;88.00;;;;;;4980613;28;20726;-74
2022/11/17 01:31:02;;;;;;;5.47;3.25;;;21.30;88.00;;;;;;4988723;28;20200;-74
2022/11/17 01:33:29;;;;;;;4.22;2.88;;;21.20;88.00;;;;;;4998521;28;20193;-74
2022/11/17 01:35:59;;;;;;;3.42;2.65;;;21.20;88.00;;;;;;4989731;28;20196;-74
2022/11/17 01:38:26;;;;;;;3.20;2.72;;;21.20;88.00;;;;;;4979030;28;20197;-73
2022/11/17 01:40:53;;;;;;;3.50;2.30;;;21.20;88.20;;;;;;4980132;28;20212;-74
2022/11/17 01:43:40;;;;;;;3.85;2.83;;;21.10;88.20;;;;;;4979849;28;20216;-73
2022/11/17 01:46:15;;;;;;;3.90;2.97;;;21.10;88.40;;;;;;4983039;28;20216;-73
2022/11/17 01:48:43;;;;;;;3.80;2.72;;;21.10;88.50;;;;;;4977010;28;20288;-74
2022/11/17 01:51:11;;;;;;;3.88;2.90;;;21.10;88.70;;;;;;4981612;28;20664;-73
2022/11/17 01:53:38;;;;;;;3.33;2.08;;;21.00;88.80;;;;;;4979129;28;20209;-73
2022/11/17 01:56:09;;;;;;;3.20;2.55;;;21.10;89.00;;;;;;4991416;28;20197;-74
2022/11/17 01:58:44;;;;;;;2.92;2.40;;;21.00;89.00;;;;;;4985889;28;20228;-74
2022/11/17 02:01:10;;;;;;;3.97;2.58;;;21.00;89.00;;;;;;4991972;28;20200;-73
2022/11/17 02:03:38;;;;;;;3.03;2.47;;;21.00;89.30;;;;;;4983347;28;20320;-74
2022/11/17 02:06:10;;;;;;;3.15;2.30;;;20.90;89.30;;;;;;4980010;28;20220;-73
2022/11/17 02:08:40;;;;;;;3.72;2.60;;;20.90;89.40;;;;;;4983565;28;20679;-73
2022/11/17 02:11:11;;;;;;;4.28;2.35;;;20.90;89.60;;;;;;4978710;28;20197;-74
2022/11/17 02:13:40;;;;;;;4.45;2.70;;;20.90;89.80;;;;;;4978961;28;20204;-73
2022/11/17 02:16:10;;;;;;;3.42;3.03;;;20.80;89.80;;;;;;4979879;28;20229;-75
2022/11/17 02:18:37;;;;;;;2.63;2.03;;;20.80;90.00;;;;;;4979989;28;20193;-74
2022/11/17 02:21:31;;;;;;;3.45;2.85;;;20.80;90.10;;;;;;4980222;28;20201;-74
2022/11/17 02:24:27;;;;;;;3.08;2.40;;;20.70;90.20;;;;;;4979991;28;20205;-74
2022/11/17 02:27:22;;;;;;;3.15;2.47;;;20.70;90.30;;;;;;4980899;28;20219;-73
2022/11/17 02:29:58;;;;;;;2.90;2.47;;;20.70;90.40;;;;;;4978309;28;20201;-73
2022/11/17 02:32:30;;;;;;;3.75;2.70;;;20.70;90.40;;;;;;4984153;28;20208;-73
2022/11/17 02:35:06;;;;;;;3.05;2.25;;;20.70;90.40;;;;;;4978177;28;20225;-74
2022/11/17 02:37:41;;;;;;;3.78;2.50;;;20.60;90.50;;;;;;4979767;28;20576;-74
2022/11/17 02:40:13;;;;;;;3.90;2.17;;;20.60;90.60;;;;;;4979656;28;20798;-74
2022/11/17 02:45:33;;;;;;;3.55;2.50;;;20.50;90.70;;;;;;4979010;28;20220;-74
2022/11/17 02:48:05;;;;;;;4.07;2.45;;;20.50;90.80;;;;;;4981848;28;20193;-74
2022/11/17 02:50:33;;;;;;;4.65;3.13;;;20.50;90.90;;;;;;4980215;28;20581;-73
2022/11/17 02:53:00;;;;;;;3.45;2.42;;;20.40;90.90;;;;;;4976891;28;20205;-74
2022/11/17 02:55:32;;;;;;;3.85;2.75;;;20.40;91.00;;;;;;4979941;28;20321;-74
2022/11/17 02:58:00;;;;;;;3.30;2.15;;;20.40;91.00;;;;;;4978433;28;20673;-74
2022/11/17 03:00:27;;;;;;;3.92;2.53;;;20.40;91.20;;;;;;4976510;28;20653;-74
2022/11/17 03:03:19;;;;;;;4.85;2.70;;;20.30;91.20;;;;;;4984478;28;20201;-74
2022/11/17 03:05:58;;;;;;;3.60;2.45;;;20.40;91.30;;;;;;4990162;28;20388;-74
2022/11/17 03:08:36;;;;;;;3.72;2.30;;;20.30;91.40;;;;;;4978683;28;20201;-74
2022/11/17 03:11:05;;;;;;;2.30;1.70;;;20.30;91.40;;;;;;4981446;28;20212;-74
2022/11/17 03:13:43;;;;;;;3.78;2.88;;;20.20;91.50;;;;;;4979083;28;20226;-74
2022/11/17 03:16:21;;;;;;;4.32;2.38;;;20.30;91.50;;;;;;4980420;28;20228;-74
2022/11/17 03:19:00;;;;;;;3.33;2.65;;;20.20;91.60;;;;;;4979505;28;20205;-73
2022/11/17 03:21:31;;;;;;;3.72;2.50;;;20.20;91.60;;;;;;4981077;28;20572;-74
2022/11/17 03:24:05;;;;;;;3.60;2.40;;;20.20;91.80;;;;;;4993747;28;20200;-74
2022/11/17 03:26:35;;;;;;;2.60;2.40;;;20.20;91.90;;;;;;4984042;28;20714;-73
2022/11/17 03:29:07;;;;;;;4.78;2.85;;;20.10;91.90;;;;;;4982791;28;20237;-73
2022/11/17 03:31:35;;;;;;;4.20;2.50;;;20.10;92.00;;;;;;4979397;28;20193;-74
2022/11/17 03:34:04;;;;;;;5.50;2.38;;;20.10;92.10;;;;;;4984867;28;20223;-73
2022/11/17 03:36:35;;;;;;;3.70;2.22;;;20.10;92.20;;;;;;4978934;28;20205;-73
2022/11/17 03:39:08;;;;;;;2.05;1.70;;;20.00;92.10;;;;;;4983653;28;20212;-74
2022/11/17 03:41:41;;;;;;;3.42;2.45;;;20.00;92.20;;;;;;4984380;28;20296;-74
2022/11/17 03:44:11;;;;;;;2.40;2.20;;;20.00;92.30;;;;;;4983803;28;20961;-73
2022/11/17 03:46:42;;;;;;;2.10;1.80;;;20.00;92.30;;;;;;4982470;28;20240;-74
2022/11/17 03:49:18;;;;;;;4.15;2.25;;;19.90;92.40;;;;;;4983867;28;20213;-74
2022/11/17 03:51:45;;;;;;;5.05;2.50;;;19.90;92.50;;;;;;4985309;28;20231;-75
2022/11/17 03:54:14;;;;;;;2.50;2.10;;;19.90;92.50;;;;;;4987108;28;20650;-72
2022/11/17 03:56:50;;;;;;;2.47;2.10;;;19.90;92.60;;;;;;4988133;28;20197;-72
2022/11/17 03:59:23;;;;;;;3.00;1.88;;;19.90;92.60;;;;;;4979335;28;20197;-73
2022/11/17 04:01:50;;;;;;;3.13;2.83;;;19.80;92.70;;;;;;4980157;28;20207;-73
2022/11/17 04:04:19;;;;;;;4.45;2.20;;;19.80;92.80;;;;;;4981610;28;20212;-73
2022/11/17 04:06:46;;;;;;;2.63;2.40;;;19.80;92.90;;;;;;4982312;28;20221;-74
2022/11/17 04:09:13;;;;;;;2.90;2.45;;;19.80;92.90;;;;;;4981941;28;20205;-73
2022/11/17 04:17:09;;;;;;;2.80;2.05;;;19.80;93.10;;;;;;4982784;28;20232;-73
2022/11/17 04:19:36;;;;;;;2.25;1.83;;;19.70;93.10;;;;;;4981232;28;20668;-73
2022/11/17 04:22:02;;;;;;;3.80;2.33;;;19.70;93.20;;;;;;4983100;28;20212;-73
2022/11/17 04:24:29;;;;;;;2.10;1.90;;;19.70;93.30;;;;;;4983120;28;20644;-73
2022/11/17 04:29:41;;;;;;;2.53;2.00;;;19.60;93.30;;;;;;4981244;28;20607;-73
2022/11/17 04:32:08;;;;;;;4.03;1.95;;;19.60;93.40;;;;;;4980632;28;20197;-74
2022/11/17 04:34:35;;;;;;;2.80;2.22;;;19.60;93.60;;;;;;4981255;28;20274;-73
2022/11/17 04:37:01;;;;;;;2.70;2.30;;;19.60;93.60;;;;;;4980707;28;20205;-74
2022/11/17 04:39:28;;;;;;;3.00;2.15;;;19.60;93.70;;;;;;4986529;28;20197;-74
2022/11/17 04:41:56;;;;;;;3.65;2.60;;;19.50;93.70;;;;;;4988411;28;20196;-74
2022/11/17 04:44:24;;;;;;;2.33;2.13;;;19.50;93.80;;;;;;4979523;28;20205;-73
2022/11/17 04:46:52;;;;;;;1.67;1.50;;;19.50;94.30;;;;;;4994792;28;20684;-74
2022/11/17 04:49:20;;;;;;;2.80;2.00;;;19.60;94.40;;;;;;4981821;28;20198;-73
2022/11/17 04:51:47;;;;;;;2.75;1.90;;;19.60;94.40;;;;;;4979056;28;20205;-73
2022/11/17 04:54:16;;;;;;;2.47;1.73;;;19.80;94.30;;;;;;4981038;28;20222;-73
2022/11/17 04:56:43;;;;;;;2.88;1.95;;;19.80;94.20;;;;;;4982855;28;20688;-74
2022/11/17 04:59:10;;;;;;;2.20;2.00;;;19.90;94.20;;;;;;4980496;28;20204;-74
2022/11/17 05:01:37;;;;;;;2.35;1.90;;;20.00;94.00;;;;;;4981913;28;20201;-73
2022/11/17 05:04:07;;;;;;;3.05;2.10;;;20.00;94.00;;;;;;4980160;28;20197;-73
2022/11/17 05:06:35;;;;;;;3.65;2.25;;;20.10;93.90;;;;;;4982109;28;20235;-74
2022/11/17 05:09:06;;;;;;;2.25;1.90;;;20.20;93.70;;;;;;4981376;28;20576;-73
2022/11/17 05:14:19;;;;;;;2.63;2.25;;;20.20;93.60;;;;;;4981442;28;20255;-73
2022/11/17 05:19:33;;;;;;;2.20;1.65;;;20.40;93.40;;;;;;4978173;28;20220;-73
2022/11/17 05:22:00;;;;;;;2.45;1.83;;;20.40;93.30;;;;;;4982008;28;20213;-74
2022/11/17 05:24:26;;;;;;;2.55;1.70;;;20.40;93.30;;;;;;4979982;28;20212;-73
2022/11/17 05:26:53;;;;;;;2.57;1.97;;;20.40;93.30;;;;;;4982530;28;20221;-73
2022/11/17 05:29:22;;;;;;;2.28;1.73;;;20.50;93.20;;;;;;4978418;28;20200;-73
2022/11/17 05:31:49;;;;;;;4.60;1.60;;;20.60;93.00;;;;;;4979842;28;20683;-74
2022/11/17 05:34:17;;;;;;;4.03;2.10;;;20.60;92.80;;;;;;4973542;28;20561;-73
2022/11/17 05:36:46;;;;;;;2.22;1.77;;;20.60;92.80;;;;;;4982055;28;20204;-73
2022/11/17 05:39:13;;;;;;;2.58;1.73;;;20.60;92.70;;;;;;4981794;28;20209;-73
2022/11/17 05:41:40;;;;;;;3.55;2.22;;;20.60;92.70;;;;;;4980122;28;20624;-74
2022/11/17 05:44:06;;;;;;;2.50;1.65;;;20.60;92.80;;;;;;4980421;28;20680;-74
2022/11/17 05:46:33;;;;;;;1.70;1.52;;;20.60;92.70;;;;;;4979392;28;20221;-73
2022/11/17 05:49:00;;;;;;;2.47;1.90;;;20.60;92.60;;;;;;4985554;28;20645;-73
2022/11/17 05:51:27;;;;;;;1.80;1.50;;;20.60;92.60;;;;;;4982489;28;20667;-74
2022/11/17 05:53:55;;;;;;;2.63;1.83;;;20.60;92.60;;;;;;4980063;28;20193;-73
2022/11/17 05:56:33;;;;;;;2.22;1.92;;;20.70;92.60;;;;;;4980582;28;20193;-74
2022/11/17 05:59:07;;;;;;;2.05;1.52;;;20.70;92.60;;;;;;4981523;28;20196;-74
2022/11/17 06:01:36;;;;;;;2.67;1.90;;;20.70;92.50;;;;;;4980524;28;20224;-74
2022/11/17 06:04:04;;;;;;;2.42;1.95;;;20.70;92.60;;;;;;4981236;28;20225;-73
2022/11/17 06:06:33;;;;;;;2.58;2.03;;;20.70;92.50;;;;;;4981547;28;20803;-73
2022/11/17 06:09:01;;;;;;;2.55;1.90;;;20.70;92.50;;;;;;4979287;28;20664;-73
2022/11/17 06:11:27;;;;;;;2.30;1.70;;;20.70;92.50;;;;;;4980375;28;20221;-73
2022/11/17 06:13:54;;;;;;;1.88;1.70;;;20.80;92.40;;;;;;4983950;28;20982;-74
2022/11/17 06:16:24;;;;;;;2.22;1.60;;;20.80;92.30;;;;;;4982417;28;20632;-73
2022/11/17 06:18:54;;;;;;;1.75;1.60;;;20.90;92.30;;;;;;4977932;28;20215;-73
2022/11/17 06:21:21;;;;;;;2.60;1.97;;;20.90;92.10;;;;;;4981405;28;20676;-73
2022/11/17 06:23:50;;;;;;;2.00;1.70;;;20.90;92.10;;;;;;4985023;28;20471;-74
2022/11/17 06:26:18;;;;;;;2.10;1.70;;;20.90;92.00;;;;;;4979300;28;20310;-73
2022/11/17 06:28:48;;;;;;;2.20;1.57;;;21.00;92.00;;;;;;4982881;28;20871;-73
2022/11/17 06:31:16;;;;;;;2.53;1.70;;;21.00;91.90;;;;;;4996827;28;20459;-73
2022/11/17 06:33:43;;;;;;;1.70;1.58;;;21.00;91.90;;;;;;4985422;28;20471;-74
2022/11/17 06:36:10;;;;;;;1.60;1.37;;;21.00;91.90;;;;;;4979998;28;20196;-73
2022/11/17 06:38:37;;;;;;;1.53;1.37;;;21.00;91.80;;;;;;4982831;28;20456;-73
2022/11/17 06:41:04;;;;;;;2.95;1.63;;;21.00;91.70;;;;;;4980375;28;20452;-73
2022/11/17 06:43:34;;;;;;;3.20;1.83;;;21.00;91.70;;;;;;4977306;28;20205;-73
2022/11/17 06:46:03;;;;;;;2.20;1.40;;;21.10;91.70;;;;;;4979935;28;21813;-73
2022/11/17 06:48:34;;;;;;;2.37;1.83;;;21.10;91.60;;;;;;4980172;28;20487;-74
2022/11/17 06:51:01;;;;;;;2.33;1.80;;;21.20;91.50;;;;;;4987245;28;20456;-73
2022/11/17 06:53:28;;;;;;;3.87;1.53;;;21.20;91.40;;;;;;4991755;28;20452;-74
2022/11/17 06:56:01;;;;;;;2.37;2.17;;;21.20;91.30;;;;;;4989882;28;20464;-73
2022/11/17 06:58:28;;;;;;;1.70;1.33;;;21.30;91.30;;;;;;4995415;28;20487;-73
2022/11/17 07:01:01;;;;;;;2.70;1.90;;;21.30;91.10;;;;;;5002316;28;20455;-74
2022/11/17 07:03:28;;;;;;;2.13;1.43;;;21.40;91.10;;;;;;4995319;28;20531;-73
2022/11/17 07:05:58;;;;;;;1.60;1.30;;;21.40;90.90;;;;;;4986388;28;20456;-73
2022/11/17 07:08:25;;;;;;;2.53;1.93;;;21.40;90.80;;;;;;4986352;28;20463;-73
2022/11/17 07:10:53;;;;;;;2.40;2.10;;;21.40;90.90;;;;;;4985099;28;20963;-74
2022/11/17 07:13:20;;;;;;;2.53;2.17;;;21.40;90.70;;;;;;4988822;28;20462;-73
2022/11/17 07:15:48;;;;;;;3.30;2.17;;;21.40;90.60;;;;;;4988075;28;20483;-74
2022/11/17 07:18:16;;;;;;;2.63;1.70;;;21.40;90.60;;;;;;4981224;28;20551;-74
2022/11/17 07:20:43;;;;;;;2.30;1.60;;;21.40;90.60;;;;;;4983525;28;20471;-74
2022/11/17 07:23:10;;;;;;;2.37;1.77;;;21.50;90.60;;;;;;4983088;28;20463;-73
2022/11/17 07:25:37;;;;;;;2.33;1.93;;;21.50;90.50;;;;;;4985966;28;20832;-74
2022/11/17 07:28:03;;;;;;;1.93;1.70;;;21.50;90.50;;;;;;4987749;28;20495;-72
2022/11/17 07:30:30;;;;;;;2.50;1.70;;;21.50;90.50;;;;;;4988518;28;20471;-73
2022/11/17 07:32:58;;;;;;;2.95;2.65;;;21.50;90.40;;;;;;4980311;28;21097;-70
2022/11/17 07:35:27;;;;;;;1.90;1.57;;;21.50;90.30;;;;;;4983245;28;20646;-72
2022/11/17 07:37:57;;;;;;;2.87;1.73;;;21.50;90.30;;;;;;4982601;28;20958;-72
2022/11/17 07:40:23;;;;;;;1.90;1.60;;;21.50;90.30;;;;;;4985627;28;20667;-71
2022/11/17 07:42:50;;;;;;;2.40;1.80;;;21.50;90.10;;;;;;4980177;28;20213;-71
2022/11/17 07:45:17;;;;;;;2.27;1.40;;;21.40;90.20;;;;;;4982103;28;20460;-71
2022/11/17 07:47:44;;;;;;;3.20;1.83;;;21.40;90.10;;;;;;4991103;28;20983;-71
2022/11/17 07:50:10;;;;;;;2.07;1.50;;;21.40;90.20;;;;;;5003283;28;20459;-71
2022/11/17 07:52:38;;;;;;;1.85;1.50;;;21.40;90.20;;;;;;4982582;28;21291;-73
2022/11/17 07:55:06;;;;;;;2.85;1.85;;;21.40;90.20;;;;;;4988911;28;20215;-72
2022/11/17 07:57:33;;;;;;;2.35;1.70;;;21.40;90.30;;;;;;4988867;28;20197;-71
2022/11/17 08:00:00;;;;;;;2.83;1.87;;;21.40;90.40;;;;;;4979958;28;20204;-72
2022/11/17 08:02:27;;;;;;;3.40;1.57;;;21.40;90.40;;;;;;4997392;28;20458;-71
2022/11/17 08:04:54;;;;;;;2.60;1.73;;;21.50;90.30;;;;;;4979516;28;20535;-72
2022/11/17 08:07:21;;;;;;;2.40;1.37;;;21.50;90.20;;;;;;4984919;28;20487;-72
2022/11/17 08:09:49;;;;;;;2.77;1.40;;;21.60;90.20;;;;;;4994694;28;20889;-72
2022/11/17 08:12:16;;;;;;;2.33;1.60;;;21.70;90.10;;;;;;4992050;28;20510;-76
2022/11/17 08:14:42;;;;;;;2.13;1.47;;;21.70;89.90;;;;;;4998241;28;20463;-71
2022/11/17 08:17:10;;;;;;;1.93;1.73;;;21.80;89.70;;;;;;4988184;28;20479;-73
2022/11/17 08:19:37;;;;;;;2.13;1.87;;;21.90;89.90;;;;;;4996043;28;20460;-72
2022/11/17 08:22:03;;;;;;;2.60;1.83;;;22.00;90.00;;;;;;5000567;28;20444;-72
2022/11/17 08:24:31;;;;;;;2.30;1.80;;;22.10;89.80;;;;;;4990067;28;20444;-73
2022/11/17 08:26:59;;;;;;;3.13;1.90;;;22.00;89.90;;;;;;4993991;28;20472;-75
2022/11/17 08:29:26;;;;;;;2.50;1.77;;;22.10;90.00;;;;;;4987624;28;20459;-74
2022/11/17 08:31:52;;;;;;;2.10;1.70;;;22.10;90.10;;;;;;4989426;28;20463;-73
2022/11/17 08:34:19;;;;;;;2.20;2.00;;;22.10;90.10;;;;;;4988832;28;20955;-72
2022/11/17 08:36:46;;;;;;;2.20;2.00;;;22.10;90.10;;;;;;4995345;28;20836;-73
2022/11/17 08:39:14;;;;;;;2.47;1.83;;;22.10;90.10;;;;;;4998172;28;20491;-74
2022/11/17 08:41:40;;;;;;;3.10;1.87;;;22.00;90.30;;;;;;5000192;28;20464;-74
2022/11/17 08:44:08;;;;;;;4.27;1.80;;;22.10;90.80;;;;;;4995322;28;20460;-72
2022/11/17 08:46:35;;;;;;;5.43;2.03;;;22.10;90.80;;;;;;4982550;28;20486;-73
2022/11/17 08:49:02;;;;;;;7.07;2.07;;;22.00;91.70;;;;;;4992630;28;20455;-72
2022/11/17 08:51:29;;;;;;;3.90;2.33;;;22.00;92.70;;;;;;5004944;28;20483;-73
2022/11/17 08:53:56;;;;;;;7.73;2.00;;;22.00;92.80;;;;;;4995999;28;20899;-72
2022/11/17 08:56:22;;;;;;;2.37;2.17;;;22.00;92.90;;;;;;4987180;28;20472;-73
2022/11/17 08:58:49;;;;;;;3.50;2.30;;;21.90;92.90;;;;;;5002171;28;20459;-72
2022/11/17 09:01:17;;;;;;;3.73;2.00;;;21.90;93.00;;;;;;4989239;28;20467;-72
2022/11/17 09:03:46;;;;;;;3.80;2.07;;;21.90;93.00;;;;;;4986127;28;20463;-72
2022/11/17 09:06:13;;;;;;;3.77;1.90;;;21.90;93.10;;;;;;4998159;28;20841;-73
2022/11/17 09:08:40;;;;;;;3.90;1.80;;;21.90;93.10;;;;;;4991343;28;20574;-72
2022/11/17 09:11:09;;;;;;;3.90;2.20;;;22.00;93.10;;;;;;4991521;28;20464;-72
2022/11/17 09:13:37;;;;;;;5.17;2.27;;;22.00;93.10;;;;;;4988946;28;20472;-72
2022/11/17 09:16:05;;;;;;;2.70;1.80;;;22.10;93.00;;;;;;4987196;28;20495;-72
2022/11/17 09:18:35;;;;;;;2.23;1.93;;;22.10;92.80;;;;;;4989938;28;20463;-74
2022/11/17 09:21:03;;;;;;;4.10;1.60;;;22.20;92.80;;;;;;4990353;28;20452;-72
2022/11/17 09:23:30;;;;;;;1.60;1.43;;;22.20;92.70;;;;;;4990560;28;20816;-73
2022/11/17 09:25:57;;;;;;;3.10;1.77;;;22.20;92.60;;;;;;4990569;28;20448;-71
2022/11/17 09:28:24;;;;;;;3.00;1.53;;;22.30;92.60;;;;;;4995019;28;20476;-74
2022/11/17 09:30:51;;;;;;;4.03;1.73;;;22.30;92.50;;;;;;4995873;28;20822;-71
2022/11/17 09:33:18;;;;;;;4.03;2.00;;;22.30;92.40;;;;;;4990897;28;20472;-73
2022/11/17 09:35:46;;;;;;;2.30;1.60;;;22.40;92.30;;;;;;4998836;28;20453;-73
2022/11/17 09:38:12;;;;;;;2.53;2.03;;;22.40;92.30;;;;;;5003713;28;20444;-73
2022/11/17 09:40:41;;;;;;;2.47;1.73;;;22.40;92.20;;;;;;4990794;28;20935;-74
2022/11/17 09:43:20;;;;;;;2.97;1.90;;;22.40;92.20;;;;;;4992650;28;20954;-73
2022/11/17 09:45:48;;;;;;;4.00;1.80;;;22.40;92.10;;;;;;5002674;28;20447;-72
2022/11/17 09:48:20;;;;;;;3.30;2.50;;;22.40;92.00;;;;;;4987836;28;20488;-72
2022/11/17 09:50:50;;;;;;;2.20;1.77;;;22.50;92.00;;;;;;4989329;28;20484;-72
2022/11/17 09:53:27;;;;;;;2.37;2.00;;;22.50;91.90;;;;;;4983289;28;20955;-72
2022/11/17 09:55:57;;;;;;;3.50;2.13;;;22.50;91.90;;;;;;4980971;28;20455;-72
2022/11/17 09:58:32;;;;;;;2.00;1.63;;;22.50;91.90;;;;;;4981155;28;20461;-73
2022/11/17 10:00:59;;;;;;;1.93;1.30;;;22.50;91.90;;;;;;4984668;28;20447;-73
2022/11/17 10:03:28;;;;;;;16.27;2.17;;;22.50;91.90;;;;;;4987439;28;20461;-73
2022/11/17 10:05:58;;;;;;;3.33;2.10;;;22.50;91.90;;;;;;4992312;28;20440;-73
2022/11/17 10:08:33;;;;;;;2.80;1.20;;;22.50;92.00;;;;;;4991975;28;20990;-85
2022/11/17 10:11:30;;;;;;;2.97;1.23;;;20.00;87.70;;;;;;4992599;28;20934;-80
2022/11/17 10:13:48;;;;;;;7.13;1.10;;;18.60;93.80;;;;;;4997999;28;20193;-79
2022/11/17 10:16:15;;;;;;;7.63;1.50;;;18.20;94.60;;;;;;4987143;28;20225;-71
2022/11/17 10:18:43;;;;;;;3.97;1.15;;;18.90;96.90;;;;;;4984250;28;20220;-72
2022/11/17 10:21:11;;;;;;;2.55;1.25;;;20.40;94.50;;;;;;4990113;28;20200;-72
2022/11/17 10:23:40;;;;;;;2.05;0.93;;;21.10;93.00;;;;;;4986158;28;20204;-78
2022/11/17 10:26:09;;;;;;;3.88;1.45;;;21.40;92.50;;;;;;4987938;28;20546;-79
2022/11/17 10:28:36;;;;;;;1.30;1.10;;;21.50;92.40;;;;;;4986571;28;20739;-78
2022/11/17 10:31:05;;;;;;;2.50;1.27;;;21.60;92.40;;;;;;4994024;28;20473;-78
2022/11/17 10:33:38;;;;;;;2.23;1.30;;;21.60;92.40;;;;;;4965941;28;20475;-78
2022/11/17 10:36:13;;;;;;;1.93;1.17;;;21.70;92.30;;;;;;4995618;28;20452;-78
2022/11/17 10:38:46;;;;;;;2.63;1.13;;;21.80;92.30;;;;;;5000661;28;20510;-73
2022/11/17 10:41:16;;;;;;;1.93;1.50;;;21.80;92.30;;;;;;5000010;28;20442;-73
2022/11/17 10:43:54;;;;;;;3.13;1.23;;;22.00;91.90;;;;;;4989771;28;20990;-71
2022/11/17 10:46:22;;;;;;;1.20;1.10;;;22.20;91.70;;;;;;5004325;28;20452;-72
2022/11/17 10:48:56;;;;;;;5.20;1.63;;;22.20;91.30;;;;;;4998612;28;20479;-72
2022/11/17 10:51:24;;;;;;;1.37;1.10;;;22.30;91.10;;;;;;5000115;28;20463;-73
2022/11/17 10:54:05;;;;;;;4.60;1.37;;;22.30;90.90;;;;;;4993395;28;20459;-72
2022/11/17 10:56:34;;;;;;;4.33;2.03;;;22.40;90.80;;;;;;4995447;28;20455;-72
2022/11/17 10:59:12;;;;;;;1.20;0.80;;;22.40;90.60;;;;;;4990071;28;20454;-71
2022/11/17 11:01:40;;;;;;;2.17;1.23;;;22.40;90.50;;;;;;4994595;28;20491;-71
2022/11/17 11:04:27;;;;;;;1.93;1.20;;;22.40;90.30;;;;;;4993672;28;20814;-72
2022/11/17 11:07:07;;;;;;;2.13;1.27;;;22.40;90.20;;;;;;4996228;28;20458;-72
2022/11/17 11:09:40;;;;;;;1.60;1.23;;;22.40;90.10;;;;;;4994057;28;20500;-72
2022/11/17 11:12:12;;;;;;;2.87;1.70;;;22.40;90.10;;;;;;4988221;28;21027;-72
2022/11/17 11:14:41;;;;;;;2.30;1.30;;;22.50;90.00;;;;;;4984262;28;21041;-72
2022/11/17 11:17:12;;;;;;;3.10;1.10;;;22.50;90.00;;;;;;4998204;28;20986;-72
2022/11/17 11:19:41;;;;;;;1.50;1.13;;;22.50;89.90;;;;;;4992646;28;20456;-71
2022/11/17 11:22:26;;;;;;;1.20;1.00;;;22.50;89.70;;;;;;4993443;28;20440;-72
2022/11/17 11:25:03;;;;;;;3.47;1.30;;;22.50;89.60;;;;;;4991264;28;20468;-72
2022/11/17 11:27:48;;;;;;;2.70;1.40;;;22.50;89.50;;;;;;4988391;28;20567;-72
2022/11/17 11:30:18;;;;;;;1.27;0.87;;;22.50;89.30;;;;;;4987258;28;20468;-71
2022/11/17 11:32:58;;;;;;;2.93;1.30;;;22.50;89.20;;;;;;4998354;28;20508;-71
2022/11/17 11:35:50;;;;;;;1.43;1.20;;;22.50;89.10;;;;;;4988591;28;20478;-73
2022/11/17 11:38:32;;;;;;;2.47;1.10;;;22.50;88.90;;;;;;4983698;28;21009;-72
2022/11/17 11:41:13;;;;;;;1.53;1.30;;;22.60;89.80;;;;;;4989404;28;20454;-76
2022/11/17 11:43:47;;;;;;;1.70;1.23;;;22.60;89.70;;;;;;4982391;28;20449;-76
2022/11/17 11:46:18;;;;;;;4.10;1.97;;;22.60;90.00;;;;;;4992267;28;20482;-75
2022/11/17 11:48:49;;;;;;;2.33;1.20;;;22.60;90.10;;;;;;4988547;28;20920;-75
2022/11/17 11:51:20;;;;;;;1.50;1.27;;;22.60;90.20;;;;;;4996578;28;20799;-78
2022/11/17 11:53:52;;;;;;;1.67;1.00;;;22.60;90.20;;;;;;4991904;28;20450;-77
2022/11/17 11:56:24;;;;;;;1.37;1.03;;;22.60;90.30;;;;;;4992940;28;20456;-77
2022/11/17 11:59:00;;;;;;;1.90;1.33;;;22.60;90.30;;;;;;4994751;28;20460;-77
2022/11/17 12:01:30;;;;;;;2.10;1.30;;;22.70;90.40;;;;;;4991742;28;20962;-75
2022/11/17 12:04:07;;;;;;;2.73;1.27;;;22.60;90.40;;;;;;4987264;28;20458;-74
2022/11/17 12:06:43;;;;;;;2.33;1.57;;;22.70;90.50;;;;;;4993358;28;20441;-77
2022/11/17 12:09:38;;;;;;;1.50;1.30;;;22.70;90.50;;;;;;4988482;28;20867;-76
2022/11/17 12:12:12;;;;;;;1.77;1.13;;;22.70;90.60;;;;;;4989763;28;20997;-74
2022/11/17 12:14:40;;;;;;;1.47;0.90;;;22.70;90.50;;;;;;4989064;28;20458;-75
2022/11/17 12:17:16;;;;;;;3.70;1.30;;;22.70;90.50;;;;;;4996617;28;20484;-76
2022/11/17 12:19:56;;;;;;;1.30;1.00;;;22.70;90.40;;;;;;4995352;28;20559;-77
2022/11/17 12:22:40;;;;;;;2.07;1.30;;;22.70;90.50;;;;;;4992471;28;20788;-76
2022/11/17 12:25:17;;;;;;;1.07;0.90;;;22.70;90.50;;;;;;4974864;28;20452;-76
2022/11/17 12:27:48;;;;;;;1.70;1.10;;;22.70;90.50;;;;;;4988478;28;20534;-75
2022/11/17 12:30:51;;;;;;;1.40;1.03;;;22.70;90.50;;;;;;4986551;28;20463;-75
2022/11/17 12:33:19;;;;;;;1.60;1.20;;;22.70;90.30;;;;;;4987160;28;20491;-76
2022/11/17 12:36:24;;;;;;;1.27;1.07;;;22.70;90.50;;;;;;4989660;28;20466;-75
2022/11/17 12:38:52;;;;;;;1.20;1.00;;;22.70;90.50;;;;;;4988924;28;20460;-75
2022/11/17 12:41:52;;;;;;;1.70;1.13;;;22.70;90.60;;;;;;4992305;28;20476;-77
2022/11/17 12:44:56;;;;;;;7.67;1.03;;;22.70;90.70;;;;;;4987713;28;20973;-78
2022/11/17 12:47:27;;;;;;;3.00;1.20;;;22.70;91.00;;;;;;4987229;28;20511;-77
2022/11/17 12:50:27;;;;;;;1.93;1.00;;;22.70;91.30;;;;;;4992122;28;20555;-78
2022/11/17 12:53:26;;;;;;;1.50;0.90;;;22.70;91.30;;;;;;4989026;28;20455;-79
2022/11/17 12:56:29;;;;;;;2.53;0.93;;;22.70;91.40;;;;;;4980109;28;20487;-80
2022/11/17 12:59:10;;;;;;;1.60;1.00;;;22.70;91.40;;;;;;4986962;28;20942;-76
2022/11/17 13:01:44;;;;;;;1.80;1.30;;;22.70;91.50;;;;;;4990298;28;20475;-76
2022/11/17 13:04:15;;;;;;;2.77;1.07;;;22.70;91.70;;;;;;4996960;28;20465;-76
2022/11/17 13:07:00;;;;;;;5.07;1.50;;;22.70;91.70;;;;;;4997302;28;20460;-77
2022/11/17 13:09:28;;;;;;;1.87;1.10;;;22.70;91.90;;;;;;4986948;28;20488;-77
2022/11/17 13:11:59;;;;;;;2.07;1.37;;;22.70;91.90;;;;;;4980038;28;20954;-77
2022/11/17 13:14:26;;;;;;;5.43;1.00;;;22.70;91.90;;;;;;5001227;28;20787;-77
2022/11/17 13:16:53;;;;;;;1.27;0.90;;;22.70;92.20;;;;;;4988218;28;20484;-77
2022/11/17 13:19:41;;;;;;;2.30;1.20;;;22.70;92.20;;;;;;4987969;28;20515;-77
2022/11/17 13:22:15;;;;;;;3.77;1.10;;;22.70;92.30;;;;;;4984493;28;20452;-78
2022/11/17 13:24:43;;;;;;;1.97;1.20;;;22.70;92.40;;;;;;4991889;28;20973;-76
2022/11/17 13:27:21;;;;;;;1.50;1.20;;;22.70;92.50;;;;;;4996672;28;20463;-77
2022/11/17 13:29:48;;;;;;;1.90;0.83;;;22.70;92.70;;;;;;4995328;28;20536;-77
2022/11/17 13:32:17;;;;;;;2.00;0.87;;;21.80;79.30;;;;;;4997055;28;20452;-79
2022/11/17 13:34:55;;;;;;;1.95;1.50;;;20.30;82.30;;;;;;4992476;28;20468;-76